Time;durP1;ratioP1;P1;durP2;ratioP2;P2;SDS_P1;SDS_P2;PMS_P1;PMS_P2;Temp;Humidity;BMP_temperature;BMP_pressure;BME280_temperature;BME280_humidity;BME280_pressure;Samples;Min_cycle;Max_cycle;Signal;HPM_P1;HPM_P2
2024/04/03 00:00:39;;;;;;;2.17;0.93;;;;;;;;;;5032951;28;20191;-85
2024/04/03 00:03:05;;;;;;;7.57;1.10;;;;;;;;;;5029951;28;20185;-85
2024/04/03 00:05:31;;;;;;;3.57;1.10;;;;;;;;;;5030503;28;20188;-85
2024/04/03 00:07:57;;;;;;;6.13;0.90;;;;;;;;;;5031374;28;20208;-85
2024/04/03 00:10:23;;;;;;;4.43;1.30;;;;;;;;;;5060128;28;20241;-85
2024/04/03 00:12:49;;;;;;;7.53;1.10;;;;;;;;;;5034115;28;20185;-85
2024/04/03 00:15:15;;;;;;;3.93;1.20;;;;;;;;;;5032025;28;20735;-85
2024/04/03 00:17:41;;;;;;;4.73;1.27;;;;;;;;;;5034761;28;20219;-83
2024/04/03 00:20:08;;;;;;;3.90;1.10;;;;;;;;;;5034967;28;20191;-83
2024/04/03 00:22:34;;;;;;;2.90;1.00;;;;;;;;;;5055690;28;20194;-83
2024/04/03 00:25:00;;;;;;;6.43;1.10;;;;;;;;;;5028868;28;20184;-83
2024/04/03 00:27:28;;;;;;;5.53;1.50;;;;;;;;;;5032760;28;20201;-83
2024/04/03 00:29:54;;;;;;;3.20;1.23;;;;;;;;;;5033503;28;20187;-84
2024/04/03 00:32:20;;;;;;;3.37;0.90;;;;;;;;;;5033101;28;20187;-84
2024/04/03 00:34:47;;;;;;;4.53;1.27;;;;;;;;;;5034358;28;20185;-83
2024/04/03 00:37:13;;;;;;;3.93;1.10;;;;;;;;;;5046033;28;20338;-83
2024/04/03 00:39:38;;;;;;;3.77;1.27;;;;;;;;;;5054633;28;20236;-83
2024/04/03 00:42:05;;;;;;;4.50;1.37;;;;;;;;;;5033333;28;20180;-84
2024/04/03 00:44:34;;;;;;;7.90;1.43;;;;;;;;;;5050334;28;20598;-85
2024/04/03 00:47:08;;;;;;;3.50;1.10;;;;;;;;;;5032668;28;20234;-84
2024/04/03 00:49:34;;;;;;;2.63;0.80;;;;;;;;;;5034200;28;20187;-84
2024/04/03 00:52:00;;;;;;;8.20;2.10;;;;;;;;;;5057868;28;20190;-84
2024/04/03 00:54:26;;;;;;;3.80;1.03;;;;;;;;;;5044138;28;20222;-84
2024/04/03 00:56:52;;;;;;;3.17;1.30;;;;;;;;;;5033742;28;20204;-84
2024/04/03 00:59:23;;;;;;;7.97;1.00;;;;;;;;;;5055800;28;20712;-84
2024/04/03 01:02:00;;;;;;;;;;;;;;;;;;;;;
2024/04/03 01:04:26;;;;;;;4.77;1.00;;;;;;;;;;5056205;28;20652;-84
2024/04/03 01:07:21;;;;;;;4.97;0.87;;;;;;;;;;5037748;28;20211;-84
2024/04/03 01:09:51;;;;;;;2.27;0.73;;;;;;;;;;5022551;28;20218;-84
2024/04/03 01:15:34;;;;;;;4.00;0.87;;;;;;;;;;5051103;28;20186;-84
2024/04/03 01:18:00;;;;;;;3.77;0.90;;;;;;;;;;5032300;28;20436;-83
2024/04/03 01:20:36;;;;;;;9.27;1.00;;;;;;;;;;5034884;28;20183;-83
2024/04/03 01:23:02;;;;;;;2.70;0.90;;;;;;;;;;5032413;28;20179;-83
2024/04/03 01:25:36;;;;;;;3.23;0.90;;;;;;;;;;5032389;28;20187;-83
2024/04/03 01:28:04;;;;;;;4.60;0.87;;;;;;;;;;5040591;28;20630;-83
2024/04/03 01:33:33;;;;;;;3.53;1.13;;;;;;;;;;5047726;28;20209;-83
2024/04/03 01:36:02;;;;;;;4.87;0.90;;;;;;;;;;5049152;28;20199;-83
2024/04/03 01:38:30;;;;;;;4.33;0.80;;;;;;;;;;5033222;28;20197;-83
2024/04/03 01:40:58;;;;;;;2.87;1.00;;;;;;;;;;5031436;28;20179;-84
2024/04/03 01:43:33;;;;;;;3.80;1.10;;;;;;;;;;5033825;28;20191;-83
2024/04/03 01:46:00;;;;;;;3.30;0.93;;;;;;;;;;5037923;28;20630;-83
2024/04/03 01:48:26;;;;;;;6.10;1.07;;;;;;;;;;5048959;28;20362;-83
2024/04/03 01:51:18;;;;;;;3.73;0.80;;;;;;;;;;5033414;28;20229;-83
2024/04/03 01:53:56;;;;;;;4.90;1.10;;;;;;;;;;5051975;28;20211;-84
2024/04/03 01:56:24;;;;;;;3.73;0.87;;;;;;;;;;5031285;28;20628;-84
2024/04/03 01:59:13;;;;;;;2.77;0.77;;;;;;;;;;5021205;28;20571;-84
2024/04/03 02:01:44;;;;;;;2.90;0.77;;;;;;;;;;5033314;28;20182;-84
2024/04/03 02:04:59;;;;;;;5.80;1.17;;;;;;;;;;5047570;28;20179;-84
2024/04/03 02:07:21;;;;;;;2.60;1.00;;;;;;;;;;5043853;28;20207;-84
2024/04/03 02:12:47;;;;;;;3.03;0.80;;;;;;;;;;5031694;28;20365;-84
2024/04/03 02:15:16;;;;;;;4.03;0.83;;;;;;;;;;5036100;28;20302;-84
2024/04/03 02:17:45;;;;;;;3.80;0.93;;;;;;;;;;5048780;28;20246;-83
2024/04/03 02:20:20;;;;;;;3.33;0.87;;;;;;;;;;5044018;28;20281;-84
2024/04/03 02:23:04;;;;;;;2.20;0.70;;;;;;;;;;5030356;28;20187;-84
2024/04/03 02:26:04;;;;;;;3.87;0.80;;;;;;;;;;5028820;28;20190;-83
2024/04/03 02:28:39;;;;;;;3.87;1.00;;;;;;;;;;5037876;28;20630;-83
2024/04/03 02:31:08;;;;;;;3.40;0.67;;;;;;;;;;5029549;28;20175;-83
2024/04/03 02:33:34;;;;;;;4.23;0.97;;;;;;;;;;5030841;28;20225;-83
2024/04/03 02:36:23;;;;;;;3.53;0.70;;;;;;;;;;5035363;28;20204;-83
2024/04/03 02:39:06;;;;;;;;;;;;;;;;;;;;;
2024/04/03 02:41:50;;;;;;;;;;;;;;;;;;;;;
2024/04/03 02:44:24;;;;;;;3.87;1.00;;;;;;;;;;5039131;28;20205;-83
2024/04/03 02:47:10;;;;;;;3.47;0.80;;;;;;;;;;5026051;28;20233;-83
2024/04/03 02:49:40;;;;;;;3.90;1.00;;;;;;;;;;5032986;28;20190;-83
2024/04/03 02:52:09;;;;;;;6.83;1.03;;;;;;;;;;5031929;28;20199;-83
2024/04/03 02:54:37;;;;;;;4.77;1.13;;;;;;;;;;5032858;28;20199;-83
2024/04/03 02:57:03;;;;;;;4.13;1.30;;;;;;;;;;5025701;28;20206;-83
2024/04/03 02:59:29;;;;;;;4.93;0.87;;;;;;;;;;5033793;28;20230;-83
2024/04/03 03:01:57;;;;;;;6.30;1.07;;;;;;;;;;5033959;28;20614;-83
2024/04/03 03:04:29;;;;;;;6.47;1.10;;;;;;;;;;5029599;28;20192;-83
2024/04/03 03:07:04;;;;;;;6.83;1.40;;;;;;;;;;5029246;28;20181;-83
2024/04/03 03:09:43;;;;;;;5.17;1.10;;;;;;;;;;5045032;28;20191;-83
2024/04/03 03:12:11;;;;;;;4.60;0.90;;;;;;;;;;5032046;28;20187;-83
2024/04/03 03:15:06;;;;;;;5.27;1.13;;;;;;;;;;5032456;28;20345;-83
2024/04/03 03:17:32;;;;;;;8.73;1.40;;;;;;;;;;5031400;28;20212;-83
2024/04/03 03:20:08;;;;;;;6.30;1.40;;;;;;;;;;5024560;28;20195;-83
2024/04/03 03:22:54;;;;;;;7.37;1.30;;;;;;;;;;5030900;28;20345;-83
2024/04/03 03:25:39;;;;;;;6.33;1.23;;;;;;;;;;5028747;28;20274;-83
2024/04/03 03:28:05;;;;;;;3.33;1.13;;;;;;;;;;5034102;28;20195;-83
2024/04/03 03:30:39;;;;;;;1.97;1.13;;;;;;;;;;5021218;28;20224;-83
2024/04/03 03:33:05;;;;;;;3.17;1.23;;;;;;;;;;5030719;28;20602;-83
2024/04/03 03:38:30;;;;;;;3.90;1.23;;;;;;;;;;5045884;28;20218;-82
2024/04/03 03:41:04;;;;;;;2.83;1.00;;;;;;;;;;5037863;28;20176;-83
2024/04/03 03:43:32;;;;;;;5.40;1.07;;;;;;;;;;5032157;28;20211;-84
2024/04/03 03:46:00;;;;;;;1.93;0.80;;;;;;;;;;5032140;28;20183;-84
2024/04/03 03:54:19;;;;;;;3.27;0.97;;;;;;;;;;5040955;28;20241;-84
2024/04/03 03:56:50;;;;;;;4.30;1.00;;;;;;;;;;5033109;28;20592;-83
2024/04/03 03:59:37;;;;;;;5.90;1.10;;;;;;;;;;5029935;28;20679;-84
2024/04/03 04:02:06;;;;;;;3.27;0.90;;;;;;;;;;5044888;28;20182;-83
2024/04/03 04:04:36;;;;;;;3.23;0.70;;;;;;;;;;5051023;28;20512;-84
2024/04/03 04:07:10;;;;;;;4.97;1.23;;;;;;;;;;5031106;28;20186;-83
2024/04/03 04:09:38;;;;;;;5.77;1.27;;;;;;;;;;5030438;28;20615;-84
2024/04/03 04:12:14;;;;;;;3.57;1.13;;;;;;;;;;5032236;28;20187;-84
2024/04/03 04:14:49;;;;;;;5.23;1.20;;;;;;;;;;5031790;28;20189;-83
2024/04/03 04:17:21;;;;;;;5.70;1.13;;;;;;;;;;5025294;28;20244;-84
2024/04/03 04:26:04;;;;;;;;;;;;;;;;;;;;;
2024/04/03 04:28:33;;;;;;;2.27;0.90;;;;;;;;;;5047840;28;20199;-83
2024/04/03 04:31:09;;;;;;;4.27;0.97;;;;;;;;;;5042561;28;20591;-84
2024/04/03 04:33:44;;;;;;;5.13;1.00;;;;;;;;;;5033424;28;20183;-84
2024/04/03 04:36:22;;;;;;;;;;;;;;;;;;;;;
2024/04/03 04:38:53;;;;;;;5.47;1.13;;;;;;;;;;5055152;28;20696;-84
2024/04/03 04:41:21;;;;;;;6.47;1.00;;;;;;;;;;5034583;28;20529;-84
2024/04/03 04:44:16;;;;;;;5.60;1.20;;;;;;;;;;5049745;28;20194;-84
2024/04/03 04:46:45;;;;;;;5.70;1.53;;;;;;;;;;5051023;28;20190;-84
2024/04/03 04:52:17;;;;;;;5.37;1.37;;;;;;;;;;5036709;28;20183;-84
2024/04/03 04:54:45;;;;;;;4.83;1.20;;;;;;;;;;5034066;28;20667;-84
2024/04/03 04:57:19;;;;;;;4.57;1.13;;;;;;;;;;5029290;28;20217;-84
2024/04/03 04:59:48;;;;;;;4.60;0.90;;;;;;;;;;5035049;28;20184;-83
2024/04/03 05:02:24;;;;;;;7.53;0.83;;;;;;;;;;5034994;28;20591;-84
2024/04/03 05:04:57;;;;;;;4.57;0.90;;;;;;;;;;5029417;28;20191;-84
2024/04/03 05:07:47;;;;;;;4.80;1.17;;;;;;;;;;5049803;28;20208;-84
2024/04/03 05:10:17;;;;;;;5.47;1.00;;;;;;;;;;5046897;28;20183;-84
2024/04/03 05:12:52;;;;;;;6.53;1.30;;;;;;;;;;5041474;28;20188;-84
2024/04/03 05:15:36;;;;;;;5.03;1.10;;;;;;;;;;5031339;28;20201;-84
2024/04/03 05:18:14;;;;;;;3.43;0.83;;;;;;;;;;5046313;28;20613;-84
2024/04/03 05:20:44;;;;;;;2.47;1.00;;;;;;;;;;5041557;28;20193;-84
2024/04/03 05:23:21;;;;;;;5.17;1.00;;;;;;;;;;5035109;28;20184;-83
2024/04/03 05:26:03;;;;;;;3.40;0.87;;;;;;;;;;5048269;28;20182;-84
2024/04/03 05:28:35;;;;;;;2.50;0.90;;;;;;;;;;5036311;28;20257;-83
2024/04/03 05:34:21;;;;;;;;;;;;;;;;;;;;;
2024/04/03 05:37:05;;;;;;;5.13;1.27;;;;;;;;;;5045849;28;20200;-83
2024/04/03 05:39:36;;;;;;;4.73;0.83;;;;;;;;;;5037756;28;20206;-84
2024/04/03 05:42:02;;;;;;;2.27;0.63;;;;;;;;;;5038601;28;20182;-83
2024/04/03 05:47:27;;;;;;;6.87;1.00;;;;;;;;;;5046393;28;20221;-83
2024/04/03 05:50:05;;;;;;;2.87;0.90;;;;;;;;;;5032227;28;20189;-84
2024/04/03 05:52:38;;;;;;;4.43;0.63;;;;;;;;;;5037588;28;20658;-83
2024/04/03 05:55:09;;;;;;;1.47;0.70;;;;;;;;;;5039461;28;20206;-83
2024/04/03 05:57:45;;;;;;;2.27;0.90;;;;;;;;;;5033830;28;20729;-84
2024/04/03 06:00:21;;;;;;;2.07;1.00;;;;;;;;;;5041283;28;20210;-83
2024/04/03 06:02:55;;;;;;;4.90;0.87;;;;;;;;;;5042440;28;20906;-84
2024/04/03 06:05:30;;;;;;;2.47;0.80;;;;;;;;;;5054607;28;20196;-83
2024/04/03 06:07:59;;;;;;;1.87;0.70;;;;;;;;;;5052319;28;20195;-84
2024/04/03 06:10:36;;;;;;;4.03;0.80;;;;;;;;;;5021107;28;20191;-84
2024/04/03 06:13:07;;;;;;;3.17;1.00;;;;;;;;;;5016978;28;20687;-83
2024/04/03 06:15:38;;;;;;;3.07;1.17;;;;;;;;;;5025012;28;20247;-83
2024/04/03 06:18:07;;;;;;;4.30;0.50;;;;;;;;;;5031214;28;20706;-81
2024/04/03 06:20:43;;;;;;;3.07;0.80;;;;;;;;;;5050727;28;20212;-81
2024/04/03 06:23:22;;;;;;;3.57;0.50;;;;;;;;;;5045556;28;20190;-81
2024/04/03 06:28:39;;;;;;;1.93;0.50;;;;;;;;;;5052238;28;20418;-81
2024/04/03 06:31:08;;;;;;;3.30;0.90;;;;;;;;;;5052084;28;20192;-81
2024/04/03 06:33:41;;;;;;;2.03;0.93;;;;;;;;;;5031743;28;20272;-82
2024/04/03 06:36:29;;;;;;;;;;;;;;;;;;;;;
2024/04/03 06:38:57;;;;;;;2.63;0.90;;;;;;;;;;5051316;28;20231;-81
2024/04/03 06:41:28;;;;;;;3.27;0.90;;;;;;;;;;5032591;28;20187;-82
2024/04/03 06:46:50;;;;;;;2.67;1.23;;;;;;;;;;5038363;28;20651;-81
2024/04/03 06:49:28;;;;;;;;;;;;;;;;;;;;;
2024/04/03 06:52:02;;;;;;;3.93;0.90;;;;;;;;;;5045931;28;20182;-82
2024/04/03 06:54:28;;;;;;;2.47;1.10;;;;;;;;;;5032693;28;20204;-82
2024/04/03 06:56:57;;;;;;;5.27;1.20;;;;;;;;;;5026995;28;20733;-81
2024/04/03 06:59:43;;;;;;;1.77;1.00;;;;;;;;;;5042367;28;20222;-81
2024/04/03 07:02:27;;;;;;;7.20;2.23;;;;;;;;;;5032859;28;20187;-82
2024/04/03 07:08:07;;;;;;;6.43;2.90;;;;;;;;;;5043390;28;20234;-82
2024/04/03 07:10:53;;;;;;;4.10;2.30;;;;;;;;;;5033678;28;20183;-81
2024/04/03 07:13:30;;;;;;;3.60;2.13;;;;;;;;;;5040437;28;20197;-82
2024/04/03 07:16:26;;;;;;;;;;;;;;;;;;;;;
2024/04/03 07:18:58;;;;;;;3.97;3.07;;;;;;;;;;5048348;28;20220;-82
2024/04/03 07:21:29;;;;;;;6.77;3.73;;;;;;;;;;5056000;28;20185;-82
2024/04/03 07:27:14;;;;;;;6.67;2.57;;;;;;;;;;5042913;28;20191;-82
2024/04/03 07:29:42;;;;;;;8.53;5.17;;;;;;;;;;5026794;28;20201;-81
2024/04/03 07:32:32;;;;;;;7.30;4.47;;;;;;;;;;5037152;28;20191;-82
2024/04/03 07:35:09;;;;;;;7.70;4.93;;;;;;;;;;5047096;28;20181;-82
2024/04/03 07:37:56;;;;;;;2.27;1.60;;;;;;;;;;5038809;28;20244;-81
2024/04/03 07:40:52;;;;;;;;;;;;;;;;;;;;;
2024/04/03 07:46:34;;;;;;;4.23;2.50;;;;;;;;;;5048899;28;20190;-82
2024/04/03 07:49:09;;;;;;;3.23;2.27;;;;;;;;;;5051086;28;20626;-82
2024/04/03 07:51:45;;;;;;;4.10;2.20;;;;;;;;;;5026866;28;20191;-82
2024/04/03 07:54:11;;;;;;;3.97;2.43;;;;;;;;;;5036922;28;20585;-81
2024/04/03 07:56:41;;;;;;;4.37;2.27;;;;;;;;;;5031658;28;20541;-81
2024/04/03 07:59:12;;;;;;;3.30;2.33;;;;;;;;;;5102986;22;20246;-80
2024/04/03 08:01:45;;;;;;;3.00;2.63;;;;;;;;;;5053735;28;20225;-80
2024/04/03 08:04:24;;;;;;;;;;;;;;;;;;;;;
2024/04/03 08:07:02;;;;;;;4.03;2.33;;;;;;;;;;5070104;28;20185;-80
2024/04/03 08:09:49;;;;;;;4.57;2.70;;;;;;;;;;5037879;28;20190;-80
2024/04/03 08:12:25;;;;;;;5.80;2.73;;;;;;;;;;5033730;28;20210;-81
2024/04/03 08:15:01;;;;;;;4.17;2.90;;;;;;;;;;5030153;28;20176;-81
2024/04/03 08:17:59;;;;;;;3.70;2.13;;;;;;;;;;5030970;28;20577;-80
2024/04/03 08:20:28;;;;;;;6.57;2.27;;;;;;;;;;5049604;28;20192;-81
2024/04/03 08:25:52;;;;;;;5.57;2.60;;;;;;;;;;5038500;28;20238;-81
2024/04/03 08:28:33;;;;;;;;;;;;;;;;;;;;;
2024/04/03 08:31:21;;;;;;;3.63;1.83;;;;;;;;;;5054448;28;20197;-81
2024/04/03 08:34:06;;;;;;;4.03;2.07;;;;;;;;;;5050872;28;20191;-80
2024/04/03 08:36:55;;;;;;;3.90;1.80;;;;;;;;;;5058848;28;20222;-80
2024/04/03 08:39:43;;;;;;;3.53;2.20;;;;;;;;;;5031909;28;20235;-80
2024/04/03 08:42:30;;;;;;;2.67;1.60;;;;;;;;;;5054637;28;20178;-79
2024/04/03 08:45:26;;;;;;;3.97;1.30;;;;;;;;;;5056085;28;20247;-81
2024/04/03 08:48:22;;;;;;;;;;;;;;;;;;;;;
2024/04/03 08:50:59;;;;;;;;;;;;;;;;;;;;;
2024/04/03 08:53:49;;;;;;;1.77;0.97;;;;;;;;;;5049832;28;20529;-80
2024/04/03 08:56:18;;;;;;;3.03;1.40;;;;;;;;;;5052814;28;20321;-80
2024/04/03 08:59:18;;;;;;;;;;;;;;;;;;;;;
2024/04/03 09:02:02;;;;;;;;;;;;;;;;;;;;;
2024/04/03 09:04:31;;;;;;;4.17;1.00;;;;;;;;;;5050353;28;20190;-80
2024/04/03 09:07:00;;;;;;;2.50;1.10;;;;;;;;;;5054697;28;20225;-81
2024/04/03 09:09:39;;;;;;;1.30;0.90;;;;;;;;;;5037247;28;20783;-80
2024/04/03 09:12:34;;;;;;;1.40;0.80;;;;;;;;;;5027364;28;20178;-81
2024/04/03 09:15:14;;;;;;;1.57;1.10;;;;;;;;;;5038761;28;20630;-81
2024/04/03 09:18:19;;;;;;;;;;;;;;;;;;;;;
2024/04/03 09:20:52;;;;;;;2.37;0.97;;;;;;;;;;5041181;28;20660;-81
2024/04/03 09:23:30;;;;;;;3.87;1.00;;;;;;;;;;5035095;28;20209;-81
2024/04/03 09:26:14;;;;;;;1.57;0.83;;;;;;;;;;5037417;28;20240;-81
2024/04/03 09:28:58;;;;;;;;;;;;;;;;;;;;;
2024/04/03 09:31:51;;;;;;;3.10;1.23;;;;;;;;;;5050218;28;20192;-81
2024/04/03 09:34:41;;;;;;;3.97;1.33;;;;;;;;;;5034070;28;20188;-81
2024/04/03 09:37:13;;;;;;;5.47;1.57;;;;;;;;;;5048170;28;20738;-81
2024/04/03 09:39:47;;;;;;;4.63;1.47;;;;;;;;;;5031305;28;20188;-81
2024/04/03 09:42:44;;;;;;;4.30;1.67;;;;;;;;;;5035504;28;20226;-80
2024/04/03 09:45:34;;;;;;;5.33;1.03;;;;;;;;;;5052082;28;20632;-80
2024/04/03 09:48:29;;;;;;;3.67;1.50;;;;;;;;;;5032294;28;20297;-81
2024/04/03 09:50:58;;;;;;;1.53;1.20;;;;;;;;;;5029564;28;20203;-80
2024/04/03 09:53:30;;;;;;;1.90;1.20;;;;;;;;;;5056810;28;20184;-81
2024/04/03 09:55:56;;;;;;;2.47;1.43;;;;;;;;;;5064615;28;20219;-80
2024/04/03 09:58:43;;;;;;;2.47;1.10;;;;;;;;;;5050587;28;20209;-80
2024/04/03 10:01:12;;;;;;;2.83;1.37;;;;;;;;;;5037925;28;20422;-80
2024/04/03 10:04:04;;;;;;;3.97;1.20;;;;;;;;;;5029847;28;20184;-80
2024/04/03 10:06:35;;;;;;;2.90;1.00;;;;;;;;;;5049184;28;20194;-79
2024/04/03 10:09:16;;;;;;;2.40;1.10;;;;;;;;;;5065094;28;20205;-80
2024/04/03 10:12:01;;;;;;;3.50;0.97;;;;;;;;;;5042923;28;20203;-80
2024/04/03 10:14:32;;;;;;;2.80;1.30;;;;;;;;;;5035325;28;20212;-80
2024/04/03 10:17:15;;;;;;;2.07;1.00;;;;;;;;;;5028895;28;20208;-80
2024/04/03 10:19:44;;;;;;;1.00;0.80;;;;;;;;;;5028695;28;20219;-80
2024/04/03 10:22:22;;;;;;;1.77;0.90;;;;;;;;;;5066888;28;20439;-80
2024/04/03 10:24:51;;;;;;;1.97;0.83;;;;;;;;;;5039491;28;20182;-80
2024/04/03 10:27:18;;;;;;;1.47;1.20;;;;;;;;;;5052650;28;20274;-80
2024/04/03 10:29:47;;;;;;;2.80;0.77;;;;;;;;;;5032837;28;20195;-80
2024/04/03 10:32:18;;;;;;;1.93;1.20;;;;;;;;;;5034232;28;20320;-80
2024/04/03 10:34:57;;;;;;;;;;;;;;;;;;;;;
2024/04/03 10:37:26;;;;;;;1.23;0.90;;;;;;;;;;5052240;28;20222;-80
2024/04/03 10:40:06;;;;;;;1.70;1.10;;;;;;;;;;5035832;28;20661;-80
2024/04/03 10:42:35;;;;;;;1.67;1.03;;;;;;;;;;5039311;28;20186;-80
2024/04/03 10:48:03;;;;;;;;;;;;;;;;;;;;;
2024/04/03 10:50:32;;;;;;;1.80;0.60;;;;;;;;;;5053233;28;20181;-81
2024/04/03 10:56:06;;;;;;;1.40;0.77;;;;;;;;;;5062150;28;20216;-81
2024/04/03 10:58:45;;;;;;;3.50;1.60;;;;;;;;;;5044542;28;20678;-81
2024/04/03 11:01:30;;;;;;;4.13;0.80;;;;;;;;;;5034429;28;20475;-80
2024/04/03 11:04:03;;;;;;;1.23;0.93;;;;;;;;;;5049508;28;20232;-80
2024/04/03 11:06:32;;;;;;;3.07;0.80;;;;;;;;;;5045120;28;20193;-80
2024/04/03 11:12:34;;;;;;;;;;;;;;;;;;;;;
2024/04/03 11:15:03;;;;;;;1.67;0.93;;;;;;;;;;5051376;28;20292;-80
2024/04/03 11:17:36;;;;;;;1.57;0.80;;;;;;;;;;5037422;28;20696;-80
2024/04/03 11:20:05;;;;;;;2.43;1.03;;;;;;;;;;5036367;28;20318;-81
2024/04/03 11:22:31;;;;;;;2.10;0.80;;;;;;;;;;5042132;28;20701;-81
2024/04/03 11:25:23;;;;;;;1.47;0.80;;;;;;;;;;5036637;28;20201;-81
2024/04/03 11:28:00;;;;;;;1.50;0.90;;;;;;;;;;5034767;28;20225;-80
2024/04/03 11:33:15;;;;;;;1.10;0.70;;;;;;;;;;5050026;28;20198;-80
2024/04/03 11:38:34;;;;;;;1.37;1.07;;;;;;;;;;5054701;28;20205;-81
2024/04/03 11:41:19;;;;;;;3.20;1.07;;;;;;;;;;5040602;28;20560;-80
2024/04/03 11:43:49;;;;;;;2.27;1.00;;;;;;;;;;5032469;28;20213;-80
2024/04/03 11:46:33;;;;;;;1.67;1.10;;;;;;;;;;5044804;28;20705;-80
2024/04/03 11:49:08;;;;;;;2.70;1.30;;;;;;;;;;5038808;28;20202;-81
2024/04/03 11:51:51;;;;;;;2.40;1.00;;;;;;;;;;5035892;28;20194;-81
2024/04/03 11:54:32;;;;;;;2.80;0.80;;;;;;;;;;5033712;28;20184;-81
2024/04/03 11:57:01;;;;;;;1.53;0.90;;;;;;;;;;5034049;28;20214;-81
2024/04/03 11:59:39;;;;;;;1.10;0.80;;;;;;;;;;5037945;28;20191;-80
2024/04/03 12:02:11;;;;;;;1.57;1.10;;;;;;;;;;5043488;28;20179;-80
2024/04/03 12:04:48;;;;;;;2.97;0.90;;;;;;;;;;5062261;28;20190;-80
2024/04/03 12:07:19;;;;;;;2.80;1.20;;;;;;;;;;5051378;28;20188;-81
2024/04/03 12:09:47;;;;;;;5.27;1.00;;;;;;;;;;5031978;28;20219;-80
2024/04/03 12:12:21;;;;;;;4.27;1.27;;;;;;;;;;5054397;28;20173;-81
2024/04/03 12:15:00;;;;;;;1.60;1.40;;;;;;;;;;5042177;28;21220;-81
2024/04/03 12:17:35;;;;;;;3.87;1.80;;;;;;;;;;5039531;28;20212;-84
2024/04/03 12:20:13;;;;;;;1.10;1.00;;;;;;;;;;5041181;28;20243;-83
2024/04/03 12:22:41;;;;;;;1.53;0.77;;;;;;;;;;5042144;28;20180;-83
2024/04/03 12:25:07;;;;;;;1.53;0.87;;;;;;;;;;5046698;28;20177;-83
2024/04/03 12:28:00;;;;;;;1.57;0.70;;;;;;;;;;5058965;28;20209;-84
2024/04/03 12:30:44;;;;;;;0.97;0.87;;;;;;;;;;5066572;28;20276;-83
2024/04/03 12:33:17;;;;;;;2.13;0.83;;;;;;;;;;5044702;28;20560;-83
2024/04/03 12:35:48;;;;;;;2.20;0.70;;;;;;;;;;5052652;28;20242;-84
2024/04/03 12:38:17;;;;;;;1.20;0.97;;;;;;;;;;5035536;28;20289;-84
2024/04/03 12:40:53;;;;;;;1.20;0.60;;;;;;;;;;5044820;28;20183;-85
2024/04/03 12:46:34;;;;;;;0.70;0.50;;;;;;;;;;5037079;28;20566;-85
2024/04/03 12:49:16;;;;;;;;;;;;;;;;;;;;;
2024/04/03 12:51:44;;;;;;;0.50;0.50;;;;;;;;;;5050087;28;20608;-84
2024/04/03 12:54:13;;;;;;;0.80;0.60;;;;;;;;;;5047119;28;20209;-82
2024/04/03 12:56:45;;;;;;;0.50;0.50;;;;;;;;;;5042077;28;20205;-84
2024/04/03 12:59:21;;;;;;;3.50;0.60;;;;;;;;;;5070270;28;20208;-84
2024/04/03 13:02:16;;;;;;;0.67;0.40;;;;;;;;;;5047737;28;20174;-85
2024/04/03 13:04:49;;;;;;;1.67;0.40;;;;;;;;;;5047514;28;20215;-83
2024/04/03 13:07:18;;;;;;;0.87;0.40;;;;;;;;;;5030473;28;20250;-82
2024/04/03 13:09:54;;;;;;;1.10;0.70;;;;;;;;;;5036628;28;20193;-84
2024/04/03 13:12:40;;;;;;;1.13;0.60;;;;;;;;;;5053594;28;20679;-84
2024/04/03 13:15:08;;;;;;;0.90;0.57;;;;;;;;;;5039605;28;20651;-84
2024/04/03 13:17:39;;;;;;;0.80;0.60;;;;;;;;;;5034541;28;20716;-84
2024/04/03 13:20:32;;;;;;;0.70;0.60;;;;;;;;;;5037546;28;20215;-84
2024/04/03 13:22:57;;;;;;;0.50;0.40;;;;;;;;;;5038713;28;20188;-85
2024/04/03 13:25:54;;;;;;;2.63;0.50;;;;;;;;;;5028518;28;20626;-85
2024/04/03 13:31:36;;;;;;;0.60;0.40;;;;;;;;;;5051826;28;20437;-85
2024/04/03 13:34:05;;;;;;;2.27;0.40;;;;;;;;;;5056704;28;20219;-84
2024/04/03 13:36:51;;;;;;;0.90;0.37;;;;;;;;;;5037993;28;20202;-85
2024/04/03 13:39:55;;;;;;;0.40;0.30;;;;;;;;;;5053455;28;20242;-84
2024/04/03 13:42:28;;;;;;;2.10;0.60;;;;;;;;;;5037586;28;20561;-85
2024/04/03 13:48:23;;;;;;;0.47;0.30;;;;;;;;;;5056139;28;20776;-85
2024/04/03 14:00:31;;;;;;;0.33;0.30;;;;;;;;;;5051534;28;20196;-86
2024/04/03 14:03:19;;;;;;;0.57;0.40;;;;;;;;;;5049123;28;20192;-88
2024/04/03 14:06:26;;;;;;;2.83;0.43;;;;;;;;;;5036796;28;20192;-85
2024/04/03 14:09:11;;;;;;;0.83;0.30;;;;;;;;;;5054972;28;20205;-85
2024/04/03 14:14:36;;;;;;;1.20;0.67;;;;;;;;;;5044168;28;20636;-84
2024/04/03 14:20:18;;;;;;;0.80;0.40;;;;;;;;;;5032447;28;20183;-83
2024/04/03 14:28:48;;;;;;;0.40;0.40;;;;;;;;;;5056922;28;20573;-84
2024/04/03 14:31:16;;;;;;;1.40;0.80;;;;;;;;;;5035755;28;20561;-84
2024/04/03 14:33:45;;;;;;;1.17;0.80;;;;;;;;;;5030780;28;20711;-84
2024/04/03 14:36:38;;;;;;;;;;;;;;;;;;;;;
2024/04/03 14:39:34;;;;;;;0.87;0.60;;;;;;;;;;5033095;28;20724;-83
2024/04/03 14:42:19;;;;;;;1.00;0.70;;;;;;;;;;5052212;28;20194;-84
2024/04/03 14:44:55;;;;;;;1.13;0.70;;;;;;;;;;5043196;28;20179;-84
2024/04/03 14:47:27;;;;;;;2.90;0.60;;;;;;;;;;5038810;28;20339;-83
2024/04/03 14:50:32;;;;;;;1.63;0.80;;;;;;;;;;5030574;28;20600;-84
2024/04/03 14:53:02;;;;;;;1.50;0.53;;;;;;;;;;5060864;28;20186;-83
2024/04/03 14:55:31;;;;;;;0.70;0.60;;;;;;;;;;5035864;28;20213;-84
2024/04/03 14:57:57;;;;;;;1.80;0.80;;;;;;;;;;5039397;28;20193;-84
2024/04/03 15:00:25;;;;;;;3.07;0.60;;;;;;;;;;5037194;28;20211;-85
2024/04/03 15:03:11;;;;;;;;;;;;;;;;;;;;;
2024/04/03 15:08:33;;;;;;;4.20;0.97;;;;;;;;;;5042660;28;20316;-84
2024/04/03 15:11:04;;;;;;;4.47;1.23;;;;;;;;;;5028367;28;20186;-84
2024/04/03 15:13:39;;;;;;;2.17;1.00;;;;;;;;;;5061595;28;20180;-83
2024/04/03 15:16:10;;;;;;;3.70;1.03;;;;;;;;;;5042755;28;20199;-84
2024/04/03 15:18:43;;;;;;;1.63;1.00;;;;;;;;;;5031135;28;20212;-85
2024/04/03 15:21:41;;;;;;;3.23;0.80;;;;;;;;;;5033172;28;20194;-84
2024/04/03 15:24:28;;;;;;;6.50;1.10;;;;;;;;;;5046359;28;20304;-84
2024/04/03 15:27:21;;;;;;;2.67;1.30;;;;;;;;;;5052712;28;20193;-84
2024/04/03 15:30:00;;;;;;;3.37;0.90;;;;;;;;;;5036551;28;20187;-83
2024/04/03 15:35:27;;;;;;;4.77;1.87;;;;;;;;;;5037564;28;20184;-84
2024/04/03 15:41:22;;;;;;;4.90;1.10;;;;;;;;;;5041305;28;20620;-84
2024/04/03 15:46:44;;;;;;;2.13;0.87;;;;;;;;;;5035526;28;20191;-84
2024/04/03 15:49:54;;;;;;;4.87;0.80;;;;;;;;;;5045463;28;20218;-84
2024/04/03 15:52:36;;;;;;;;;;;;;;;;;;;;;
2024/04/03 15:55:21;;;;;;;5.83;0.97;;;;;;;;;;5055693;28;20743;-83
2024/04/03 15:57:54;;;;;;;3.83;0.80;;;;;;;;;;5037769;28;20698;-84
2024/04/03 16:00:53;;;;;;;;;;;;;;;;;;;;;
2024/04/03 16:03:12;;;;;;;1.97;0.60;;;;;;;;;;5051442;28;20180;-84
2024/04/03 16:06:09;;;;;;;2.20;0.60;;;;;;;;;;5039129;28;20544;-84
2024/04/03 16:08:50;;;;;;;1.73;0.70;;;;;;;;;;5046616;28;20199;-84
2024/04/03 16:11:18;;;;;;;3.73;1.10;;;;;;;;;;5037175;28;20287;-84
2024/04/03 16:14:14;;;;;;;;;;;;;;;;;;;;;
2024/04/03 16:19:45;;;;;;;3.67;0.90;;;;;;;;;;5055746;22;20235;-85
2024/04/03 16:22:34;;;;;;;4.10;1.30;;;;;;;;;;5036087;28;20176;-85
2024/04/03 16:25:25;;;;;;;5.47;1.13;;;;;;;;;;5036147;28;20230;-85
2024/04/03 16:30:46;;;;;;;3.37;1.33;;;;;;;;;;5049472;28;20245;-83
2024/04/03 16:36:06;;;;;;;4.13;1.10;;;;;;;;;;5048696;28;20704;-84
2024/04/03 16:38:39;;;;;;;2.97;1.30;;;;;;;;;;5042920;23;20223;-85
2024/04/03 16:41:27;;;;;;;;;;;;;;;;;;;;;
2024/04/03 16:47:08;;;;;;;3.77;1.20;;;;;;;;;;5057162;28;20264;-83
2024/04/03 16:50:01;;;;;;;5.57;1.40;;;;;;;;;;5044334;28;20271;-83
2024/04/03 16:52:37;;;;;;;7.70;1.97;;;;;;;;;;5041770;28;20544;-83
2024/04/03 16:55:26;;;;;;;6.83;1.10;;;;;;;;;;5056759;28;20263;-84
2024/04/03 16:58:14;;;;;;;3.00;1.03;;;;;;;;;;5095893;22;20781;-83
2024/04/03 17:01:11;;;;;;;;;;;;;;;;;;;;;
2024/04/03 17:03:38;;;;;;;5.07;3.73;;;;;;;;;;5098214;28;20180;-86
2024/04/03 17:09:40;;;;;;;;;;;;;;;;;;;;;
2024/04/03 17:12:37;;;;;;;;;;;;;;;;;;;;;
2024/04/03 17:15:26;;;;;;;1.37;0.60;;;;;;;;;;5075068;28;20765;-85
2024/04/03 17:18:12;;;;;;;1.60;0.90;;;;;;;;;;5057140;28;20233;-82
2024/04/03 17:21:03;;;;;;;6.37;1.23;;;;;;;;;;5073576;28;20182;-83
2024/04/03 17:29:34;;;;;;;3.00;1.03;;;;;;;;;;5081412;28;20190;-82
2024/04/03 17:35:24;;;;;;;5.33;1.87;;;;;;;;;;5076579;28;20182;-83
2024/04/03 17:38:09;;;;;;;;;;;;;;;;;;;;;
2024/04/03 17:41:00;;;;;;;9.90;1.70;;;;;;;;;;5075592;28;20222;-83
2024/04/03 17:43:57;;;;;;;10.47;1.80;;;;;;;;;;5059297;28;20400;-83
2024/04/03 17:46:40;;;;;;;6.03;1.67;;;;;;;;;;5062772;28;20225;-83
2024/04/03 17:49:17;;;;;;;8.67;2.20;;;;;;;;;;5071473;28;20295;-83
2024/04/03 17:51:50;;;;;;;6.27;1.60;;;;;;;;;;5071480;28;20270;-83
2024/04/03 17:54:40;;;;;;;;;;;;;;;;;;;;;
2024/04/03 17:57:11;;;;;;;7.10;2.33;;;;;;;;;;5074550;28;20625;-83
2024/04/03 18:00:00;;;;;;;6.63;1.80;;;;;;;;;;5086128;28;20183;-83
2024/04/03 18:02:48;;;;;;;7.10;2.47;;;;;;;;;;5058081;28;20223;-83
2024/04/03 18:08:42;;;;;;;8.73;2.20;;;;;;;;;;5075725;28;20280;-82
2024/04/03 18:11:21;;;;;;;;;;;;;;;;;;;;;
2024/04/03 18:13:52;;;;;;;6.27;1.27;;;;;;;;;;5079801;28;20264;-83
2024/04/03 18:16:49;;;;;;;6.37;1.27;;;;;;;;;;5072495;28;20284;-83
2024/04/03 18:21:48;;;;;;;5.87;1.20;;;;;;;;;;5084951;28;21776;-86
2024/04/03 18:24:14;;;;;;;7.03;1.73;;;;;;;;;;5068493;28;20247;-82
2024/04/03 18:26:40;;;;;;;7.73;1.60;;;;;;;;;;5070321;28;20639;-82
2024/04/03 18:29:06;;;;;;;8.20;1.57;;;;;;;;;;5083797;28;20222;-83
2024/04/03 18:31:32;;;;;;;8.40;1.90;;;;;;;;;;5083676;28;20633;-83